Time;durP1;ratioP1;P1;durP2;ratioP2;P2;SDS_P1;SDS_P2;PMS_P1;PMS_P2;Temp;Humidity;BMP_temperature;BMP_pressure;BME280_temperature;BME280_humidity;BME280_pressure;Samples;Min_cycle;Max_cycle;Signal;HPM_P1;HPM_P2
2022/01/24 00:00:09;;;;;;;4.00;3.60;;;;;;;;;;5100599;28;20333;-81
2022/01/24 00:02:37;;;;;;;4.30;3.30;;;;;;;;;;5091623;28;20240;-80
2022/01/24 00:05:04;;;;;;;3.40;3.10;;;;;;;;;;5082026;28;20254;-81
2022/01/24 00:07:32;;;;;;;3.03;2.83;;;;;;;;;;5096671;28;20236;-80
2022/01/24 00:10:02;;;;;;;4.23;3.23;;;;;;;;;;5097204;28;20682;-81
2022/01/24 00:12:36;;;;;;;3.77;3.03;;;;;;;;;;5100376;28;20589;-81
2022/01/24 00:15:13;;;;;;;3.40;3.13;;;;;;;;;;5092701;28;20783;-81
2022/01/24 00:17:48;;;;;;;3.83;3.50;;;;;;;;;;5093801;28;20255;-81
2022/01/24 00:28:29;;;;;;;3.60;3.30;;;;;;;;;;5080194;28;20604;-81
2022/01/24 00:30:57;;;;;;;3.70;3.40;;;;;;;;;;5079778;28;20236;-81
2022/01/24 00:33:25;;;;;;;3.83;3.53;;;;;;;;;;5099472;28;20255;-81
2022/01/24 00:35:52;;;;;;;4.33;3.80;;;;;;;;;;5099110;28;20200;-81
2022/01/24 00:38:19;;;;;;;4.10;3.70;;;;;;;;;;5098203;28;20237;-81
2022/01/24 00:40:48;;;;;;;3.70;3.40;;;;;;;;;;5079524;28;20205;-81
2022/01/24 00:43:25;;;;;;;4.20;3.53;;;;;;;;;;5098495;28;20233;-81
2022/01/24 00:46:02;;;;;;;3.80;3.50;;;;;;;;;;5099431;28;20572;-82
2022/01/24 00:48:51;;;;;;;4.50;3.50;;;;;;;;;;5100154;28;20666;-81
2022/01/24 00:54:42;;;;;;;4.10;3.80;;;;;;;;;;5092828;28;20309;-81
2022/01/24 00:56:50;;;;;;;3.90;3.60;;;;;;;;;;5092771;28;20218;-81
2022/01/24 00:59:17;;;;;;;3.80;3.50;;;;;;;;;;5093877;28;20247;-80
2022/01/24 01:01:44;;;;;;;3.57;3.27;;;;;;;;;;5092788;28;20208;-80
2022/01/24 01:04:14;;;;;;;3.60;3.40;;;;;;;;;;5074258;28;20232;-80
2022/01/24 01:06:43;;;;;;;3.37;3.13;;;;;;;;;;5073541;28;20200;-82
2022/01/24 01:20:14;;;;;;;4.07;3.73;;;;;;;;;;5073568;28;20626;-80
2022/01/24 01:22:41;;;;;;;3.17;2.97;;;;;;;;;;5072905;28;20237;-80
2022/01/24 01:25:09;;;;;;;3.07;2.83;;;;;;;;;;5073919;28;20219;-80
2022/01/24 01:27:41;;;;;;;3.70;2.70;;;;;;;;;;5072829;28;20239;-80
2022/01/24 01:30:15;;;;;;;3.50;3.20;;;;;;;;;;5074039;28;20243;-81
2022/01/24 01:32:54;;;;;;;4.73;2.83;;;;;;;;;;5073008;28;20649;-81
2022/01/24 01:35:41;;;;;;;3.40;3.10;;;;;;;;;;5074082;28;20197;-82
2022/01/24 01:38:30;;;;;;;5.07;2.73;;;;;;;;;;5073227;28;20323;-80
2022/01/24 01:55:07;;;;;;;2.70;2.50;;;;;;;;;;5072807;28;20211;-80
2022/01/24 01:57:34;;;;;;;2.77;2.53;;;;;;;;;;5084784;28;20733;-80
2022/01/24 02:00:01;;;;;;;2.73;2.43;;;;;;;;;;5086763;28;20206;-80
2022/01/24 02:02:28;;;;;;;2.67;2.47;;;;;;;;;;5092194;28;20243;-80
2022/01/24 02:04:55;;;;;;;2.70;2.50;;;;;;;;;;5082037;28;20209;-80
2022/01/24 02:07:24;;;;;;;2.93;2.73;;;;;;;;;;5089449;28;20238;-81
2022/01/24 02:09:51;;;;;;;3.23;2.70;;;;;;;;;;5083864;28;20579;-80
2022/01/24 02:12:21;;;;;;;2.40;2.30;;;;;;;;;;5092617;28;20244;-80
2022/01/24 02:14:54;;;;;;;2.63;2.50;;;;;;;;;;5078204;28;20205;-80
2022/01/24 02:17:29;;;;;;;2.90;2.70;;;;;;;;;;5074069;28;20261;-80
2022/01/24 02:20:11;;;;;;;3.20;3.00;;;;;;;;;;5074638;28;20327;-80
2022/01/24 02:22:47;;;;;;;2.90;2.60;;;;;;;;;;5077636;28;20235;-80
2022/01/24 02:25:25;;;;;;;2.70;2.50;;;;;;;;;;5089488;28;20264;-80
2022/01/24 02:27:59;;;;;;;3.07;2.87;;;;;;;;;;5091333;28;20327;-80
2022/01/24 02:30:48;;;;;;;2.97;2.77;;;;;;;;;;5072691;28;20211;-80
2022/01/24 02:33:15;;;;;;;3.63;2.77;;;;;;;;;;5072280;28;20229;-80
2022/01/24 02:35:42;;;;;;;3.37;3.17;;;;;;;;;;5072921;28;20200;-80
2022/01/24 02:38:19;;;;;;;3.50;3.20;;;;;;;;;;5073916;28;20247;-80
2022/01/24 02:46:00;;;;;;;3.13;2.93;;;;;;;;;;5093296;28;20214;-80
2022/01/24 02:49:14;;;;;;;2.90;2.70;;;;;;;;;;5011108;28;20307;-80
2022/01/24 02:51:47;;;;;;;2.70;2.50;;;;;;;;;;5057690;28;20566;-80
2022/01/24 02:54:22;;;;;;;2.20;2.10;;;;;;;;;;5073331;28;20226;-80
2022/01/24 02:56:49;;;;;;;3.63;2.97;;;;;;;;;;5073283;28;20225;-80
2022/01/24 02:59:17;;;;;;;2.83;2.37;;;;;;;;;;5082728;28;20206;-80
2022/01/24 03:01:44;;;;;;;2.77;2.57;;;;;;;;;;5089160;28;20668;-80
2022/01/24 03:04:11;;;;;;;3.63;2.87;;;;;;;;;;5093236;28;20662;-80
2022/01/24 03:06:39;;;;;;;2.40;2.30;;;;;;;;;;5094218;28;20200;-80
2022/01/24 03:09:06;;;;;;;2.60;2.40;;;;;;;;;;5087818;28;20221;-80
2022/01/24 03:11:56;;;;;;;2.50;2.40;;;;;;;;;;5083330;28;20233;-81
2022/01/24 03:14:26;;;;;;;2.80;2.60;;;;;;;;;;5092759;28;20224;-81
2022/01/24 03:16:54;;;;;;;3.00;2.80;;;;;;;;;;5076989;28;20231;-81
2022/01/24 03:19:21;;;;;;;2.80;2.60;;;;;;;;;;5077391;28;20205;-80
2022/01/24 03:21:48;;;;;;;2.63;2.50;;;;;;;;;;5076508;28;20193;-80
2022/01/24 03:24:16;;;;;;;3.10;2.80;;;;;;;;;;5080709;28;20224;-81
2022/01/24 03:26:44;;;;;;;3.00;2.80;;;;;;;;;;5083417;28;20193;-80
2022/01/24 03:29:11;;;;;;;3.33;3.03;;;;;;;;;;5086643;28;20208;-81
2022/01/24 03:31:39;;;;;;;2.90;2.70;;;;;;;;;;5076097;28;20225;-81
2022/01/24 03:34:06;;;;;;;2.67;2.57;;;;;;;;;;5095121;28;20661;-81
2022/01/24 03:36:33;;;;;;;2.77;2.47;;;;;;;;;;5087210;28;20212;-81
2022/01/24 03:39:00;;;;;;;2.70;2.60;;;;;;;;;;5076251;28;20242;-80
2022/01/24 03:41:28;;;;;;;3.13;2.93;;;;;;;;;;5106681;28;20205;-80
2022/01/24 03:44:01;;;;;;;3.80;2.97;;;;;;;;;;5087586;28;20239;-80
2022/01/24 03:46:36;;;;;;;3.00;2.80;;;;;;;;;;5078452;28;20190;-80
2022/01/24 03:49:20;;;;;;;2.97;2.77;;;;;;;;;;5079169;28;20656;-81
2022/01/24 03:51:47;;;;;;;3.50;3.20;;;;;;;;;;5076649;28;20223;-80
2022/01/24 03:54:14;;;;;;;3.50;3.20;;;;;;;;;;5093213;28;20217;-81
2022/01/24 03:56:41;;;;;;;3.67;3.40;;;;;;;;;;5093292;28;20218;-81
2022/01/24 03:59:09;;;;;;;3.27;3.07;;;;;;;;;;5089865;28;20199;-81
2022/01/24 04:01:36;;;;;;;3.60;3.30;;;;;;;;;;5093303;28;20205;-81
2022/01/24 04:04:03;;;;;;;3.50;3.20;;;;;;;;;;5076411;28;20236;-80
2022/01/24 04:06:30;;;;;;;5.40;3.50;;;;;;;;;;5076999;28;20204;-81
2022/01/24 04:08:57;;;;;;;3.07;2.87;;;;;;;;;;5076751;28;20572;-80
2022/01/24 04:11:32;;;;;;;3.20;3.00;;;;;;;;;;5084878;28;20249;-81
2022/01/24 04:14:11;;;;;;;3.77;3.47;;;;;;;;;;5095909;28;20238;-80
2022/01/24 04:16:41;;;;;;;4.07;3.77;;;;;;;;;;5095776;28;20683;-81
2022/01/24 04:19:30;;;;;;;3.53;3.23;;;;;;;;;;5091943;28;20208;-81
2022/01/24 04:21:55;;;;;;;5.03;3.57;;;;;;;;;;5075380;28;20287;-80
2022/01/24 04:24:24;;;;;;;4.20;3.80;;;;;;;;;;5076257;28;20200;-81
2022/01/24 04:26:51;;;;;;;3.70;3.40;;;;;;;;;;5092282;28;20211;-81
2022/01/24 04:29:18;;;;;;;4.47;4.17;;;;;;;;;;5096999;28;20207;-81
2022/01/24 04:31:47;;;;;;;3.70;3.40;;;;;;;;;;5095921;28;20215;-81
2022/01/24 04:34:14;;;;;;;4.00;3.70;;;;;;;;;;5099513;28;20236;-80
2022/01/24 04:36:41;;;;;;;4.00;3.70;;;;;;;;;;5099801;28;20401;-81
2022/01/24 04:39:08;;;;;;;5.37;4.00;;;;;;;;;;5100537;28;20207;-81
2022/01/24 04:41:38;;;;;;;4.50;4.20;;;;;;;;;;5100090;28;20201;-80
2022/01/24 04:44:12;;;;;;;4.17;3.60;;;;;;;;;;5101006;28;20265;-81
2022/01/24 04:46:56;;;;;;;4.60;4.13;;;;;;;;;;5099398;28;20207;-80
2022/01/24 04:52:16;;;;;;;4.73;4.30;;;;;;;;;;5098751;28;20247;-82
2022/01/24 04:54:43;;;;;;;5.10;4.70;;;;;;;;;;5099075;28;20216;-80
2022/01/24 04:57:11;;;;;;;4.53;4.23;;;;;;;;;;5098895;28;20235;-80
2022/01/24 04:59:39;;;;;;;4.53;4.07;;;;;;;;;;5099625;28;20199;-80
2022/01/24 05:02:06;;;;;;;3.40;3.10;;;;;;;;;;5098829;28;20229;-80
2022/01/24 05:04:36;;;;;;;3.53;3.23;;;;;;;;;;5099611;28;20202;-80
2022/01/24 05:07:03;;;;;;;3.20;3.00;;;;;;;;;;5097778;28;20606;-81
2022/01/24 05:09:36;;;;;;;3.17;2.97;;;;;;;;;;5099337;28;20283;-81
2022/01/24 05:12:11;;;;;;;3.47;3.17;;;;;;;;;;5098297;28;20232;-81
2022/01/24 05:26:17;;;;;;;3.13;2.90;;;;;;;;;;5058635;28;20729;-82
2022/01/24 05:28:44;;;;;;;3.47;2.90;;;;;;;;;;5093567;28;20663;-82
2022/01/24 05:31:11;;;;;;;3.40;3.13;;;;;;;;;;5096378;28;20211;-82
2022/01/24 05:33:38;;;;;;;3.53;3.10;;;;;;;;;;5094990;28;20238;-81
2022/01/24 05:36:06;;;;;;;3.57;3.23;;;;;;;;;;5096592;28;20211;-81
2022/01/24 05:38:34;;;;;;;4.10;3.37;;;;;;;;;;5094526;28;20253;-81
2022/01/24 05:41:01;;;;;;;3.40;3.13;;;;;;;;;;5095065;28;20208;-81
2022/01/24 05:43:28;;;;;;;3.60;3.30;;;;;;;;;;5094064;28;20246;-81
2022/01/24 05:45:55;;;;;;;3.40;3.20;;;;;;;;;;5097006;28;20207;-81
2022/01/24 05:48:22;;;;;;;3.90;3.57;;;;;;;;;;5094093;28;20237;-81
2022/01/24 05:50:49;;;;;;;3.30;3.10;;;;;;;;;;5094626;28;20211;-81
2022/01/24 05:53:17;;;;;;;3.50;3.30;;;;;;;;;;5093746;28;20245;-81
2022/01/24 05:55:44;;;;;;;4.93;3.07;;;;;;;;;;5094489;28;20556;-82
2022/01/24 05:58:11;;;;;;;3.63;3.33;;;;;;;;;;5094040;28;20615;-79
2022/01/24 06:00:39;;;;;;;3.60;3.40;;;;;;;;;;5094691;28;20208;-79
2022/01/24 06:03:06;;;;;;;3.70;3.40;;;;;;;;;;5094055;28;20228;-79
2022/01/24 06:05:33;;;;;;;3.87;3.50;;;;;;;;;;5094661;28;20230;-79
2022/01/24 06:08:00;;;;;;;3.30;3.00;;;;;;;;;;5094187;28;20234;-80
2022/01/24 06:10:28;;;;;;;4.33;3.40;;;;;;;;;;5094800;28;20218;-83
2022/01/24 06:12:55;;;;;;;3.33;3.10;;;;;;;;;;5094061;28;20249;-83
2022/01/24 06:15:22;;;;;;;3.87;3.43;;;;;;;;;;5093653;28;20205;-82
2022/01/24 06:17:49;;;;;;;3.83;3.53;;;;;;;;;;5093268;28;20320;-83
2022/01/24 06:20:16;;;;;;;4.10;3.70;;;;;;;;;;5092814;28;20253;-82
2022/01/24 06:22:43;;;;;;;4.00;3.70;;;;;;;;;;5091686;28;20367;-82
2022/01/24 06:25:13;;;;;;;3.90;3.60;;;;;;;;;;5092597;28;20630;-83
2022/01/24 06:27:41;;;;;;;4.73;3.63;;;;;;;;;;5091966;28;20242;-83
2022/01/24 06:30:09;;;;;;;4.30;3.23;;;;;;;;;;5092900;28;20249;-83
2022/01/24 06:32:38;;;;;;;3.67;3.47;;;;;;;;;;5091685;28;20233;-83
2022/01/24 06:35:05;;;;;;;3.97;3.67;;;;;;;;;;5092535;28;20690;-82
2022/01/24 06:37:32;;;;;;;3.70;3.40;;;;;;;;;;5094061;28;20242;-82
2022/01/24 06:39:59;;;;;;;3.70;3.40;;;;;;;;;;5112816;28;20205;-82
2022/01/24 06:42:26;;;;;;;4.07;3.67;;;;;;;;;;5100011;28;20243;-83
2022/01/24 06:44:56;;;;;;;4.70;4.00;;;;;;;;;;5120804;22;20207;-85
2022/01/24 06:47:24;;;;;;;4.10;3.80;;;;;;;;;;5065053;28;20242;-85
2022/01/24 06:49:51;;;;;;;4.63;3.97;;;;;;;;;;5064445;28;20210;-85
2022/01/24 06:52:18;;;;;;;4.20;3.80;;;;;;;;;;5052921;28;20595;-85
2022/01/24 06:54:45;;;;;;;4.93;3.90;;;;;;;;;;5053262;28;20208;-85
2022/01/24 06:57:13;;;;;;;3.77;3.43;;;;;;;;;;5052561;28;20331;-85
2022/01/24 06:59:40;;;;;;;4.07;3.70;;;;;;;;;;5052716;28;20671;-85
2022/01/24 07:02:09;;;;;;;3.70;3.37;;;;;;;;;;5051966;28;20238;-84
2022/01/24 07:04:39;;;;;;;4.33;3.73;;;;;;;;;;5052405;28;20209;-84
2022/01/24 07:07:06;;;;;;;3.57;3.37;;;;;;;;;;5052604;28;20229;-84
2022/01/24 07:09:34;;;;;;;4.20;3.80;;;;;;;;;;5052625;28;20299;-84
2022/01/24 07:12:01;;;;;;;3.80;3.50;;;;;;;;;;5051898;28;20575;-84
2022/01/24 07:14:28;;;;;;;4.13;3.50;;;;;;;;;;5052486;28;20226;-84
2022/01/24 07:17:17;;;;;;;3.90;3.57;;;;;;;;;;5051725;28;20232;-84
2022/01/24 07:19:45;;;;;;;4.07;3.73;;;;;;;;;;5052385;28;20196;-84
2022/01/24 07:22:12;;;;;;;4.03;3.63;;;;;;;;;;5052497;28;20324;-84
2022/01/24 07:24:39;;;;;;;4.80;4.40;;;;;;;;;;5052583;28;20622;-85
2022/01/24 07:27:06;;;;;;;4.63;4.20;;;;;;;;;;5052940;28;20247;-84
2022/01/24 07:29:34;;;;;;;7.80;4.10;;;;;;;;;;5058937;28;20211;-86
2022/01/24 07:32:01;;;;;;;8.03;4.20;;;;;;;;;;5052231;28;20240;-84
2022/01/24 07:34:29;;;;;;;4.70;3.83;;;;;;;;;;5047132;28;20229;-83
2022/01/24 07:36:57;;;;;;;4.37;3.97;;;;;;;;;;5044932;28;20230;-83
2022/01/24 07:39:24;;;;;;;4.63;4.23;;;;;;;;;;5046926;28;20222;-84
2022/01/24 07:41:52;;;;;;;4.63;4.23;;;;;;;;;;5039115;28;20214;-84
2022/01/24 07:44:21;;;;;;;4.10;3.80;;;;;;;;;;5051033;28;20233;-84
2022/01/24 07:46:48;;;;;;;5.20;4.40;;;;;;;;;;5050739;28;20668;-85
2022/01/24 07:49:15;;;;;;;5.83;4.10;;;;;;;;;;5052256;28;20199;-84
2022/01/24 07:51:43;;;;;;;4.23;3.83;;;;;;;;;;5051384;28;20209;-84
2022/01/24 07:54:11;;;;;;;4.60;4.17;;;;;;;;;;5056072;28;20231;-84
2022/01/24 07:56:38;;;;;;;4.40;4.00;;;;;;;;;;5055182;28;20294;-84
2022/01/24 07:59:05;;;;;;;4.50;4.20;;;;;;;;;;5055476;28;20215;-85
2022/01/24 08:01:33;;;;;;;5.17;4.60;;;;;;;;;;5055462;28;20573;-85
2022/01/24 08:04:00;;;;;;;4.63;4.23;;;;;;;;;;5054915;28;20239;-85
2022/01/24 08:06:27;;;;;;;4.43;4.13;;;;;;;;;;5055378;28;20229;-85
2022/01/24 08:08:54;;;;;;;4.10;3.70;;;;;;;;;;5054663;28;20252;-85
2022/01/24 08:11:22;;;;;;;4.10;3.80;;;;;;;;;;5055862;28;20211;-84
2022/01/24 08:13:49;;;;;;;4.57;3.83;;;;;;;;;;5054878;28;20254;-85
2022/01/24 08:16:17;;;;;;;4.53;4.13;;;;;;;;;;5054381;28;20223;-85
2022/01/24 08:18:44;;;;;;;7.30;4.13;;;;;;;;;;5034899;28;20239;-85
2022/01/24 08:21:11;;;;;;;4.83;4.20;;;;;;;;;;5035619;28;20584;-85
2022/01/24 08:23:38;;;;;;;4.43;4.00;;;;;;;;;;5034899;28;20229;-85
2022/01/24 08:26:05;;;;;;;4.70;3.93;;;;;;;;;;5035970;28;20235;-86
2022/01/24 08:28:34;;;;;;;4.40;4.00;;;;;;;;;;5035913;28;20238;-84
2022/01/24 08:31:01;;;;;;;4.27;3.97;;;;;;;;;;5035465;28;20207;-85
2022/01/24 08:33:28;;;;;;;4.90;4.13;;;;;;;;;;5049913;28;20233;-86
2022/01/24 08:35:56;;;;;;;4.50;3.50;;;;;;;;;;5055386;28;20220;-85
2022/01/24 08:38:23;;;;;;;4.37;3.97;;;;;;;;;;5035037;28;20302;-84
2022/01/24 08:40:55;;;;;;;4.63;3.80;;;;;;;;;;5048976;28;20210;-85
2022/01/24 08:43:37;;;;;;;3.93;3.63;;;;;;;;;;5054130;28;20255;-85
2022/01/24 08:46:05;;;;;;;4.20;3.90;;;;;;;;;;5054862;28;20308;-85
2022/01/24 08:48:32;;;;;;;5.23;4.60;;;;;;;;;;5053997;28;20237;-85
2022/01/24 08:51:00;;;;;;;4.30;3.87;;;;;;;;;;5054718;28;20238;-85
2022/01/24 08:53:30;;;;;;;5.47;4.17;;;;;;;;;;5054157;28;20237;-85
2022/01/24 08:55:58;;;;;;;5.90;4.33;;;;;;;;;;5048891;28;20240;-85
2022/01/24 08:58:26;;;;;;;4.97;4.57;;;;;;;;;;5053518;28;20235;-89
2022/01/24 09:00:54;;;;;;;5.33;4.70;;;;;;;;;;5053447;28;20208;-84
2022/01/24 09:03:23;;;;;;;5.13;4.73;;;;;;;;;;5042097;28;20231;-85
2022/01/24 09:05:53;;;;;;;5.13;3.70;;;;;;;;;;5033982;28;20231;-86
2022/01/24 09:08:21;;;;;;;5.87;3.40;;;;;;;;;;5033828;28;20233;-85
2022/01/24 09:10:49;;;;;;;4.50;3.37;;;;;;;;;;5035212;28;20574;-86
2022/01/24 09:13:18;;;;;;;4.00;3.70;;;;;;;;;;5034480;28;20234;-85
2022/01/24 09:15:45;;;;;;;5.23;4.73;;;;;;;;;;5035461;28;20258;-85
2022/01/24 09:18:12;;;;;;;6.33;4.33;;;;;;;;;;5034653;28;20236;-85
2022/01/24 09:20:41;;;;;;;4.23;3.83;;;;;;;;;;5034957;28;20202;-85
2022/01/24 09:23:08;;;;;;;4.87;3.73;;;;;;;;;;5034615;28;20725;-85
2022/01/24 09:25:35;;;;;;;4.20;3.80;;;;;;;;;;5034848;28;20576;-85
2022/01/24 09:28:03;;;;;;;4.47;3.43;;;;;;;;;;5033512;28;20241;-85
2022/01/24 09:30:30;;;;;;;5.20;3.50;;;;;;;;;;5034009;28;20217;-85
2022/01/24 09:32:57;;;;;;;3.90;3.60;;;;;;;;;;5033555;28;20234;-85
2022/01/24 09:35:27;;;;;;;4.47;3.57;;;;;;;;;;5034406;28;20236;-84
2022/01/24 09:37:55;;;;;;;6.23;3.70;;;;;;;;;;5033389;28;20627;-86
2022/01/24 09:40:23;;;;;;;3.63;3.33;;;;;;;;;;5034353;28;20213;-85
2022/01/24 09:42:52;;;;;;;3.70;3.40;;;;;;;;;;5050641;28;20313;-87
2022/01/24 09:45:19;;;;;;;3.97;3.67;;;;;;;;;;5053767;28;20708;-87
2022/01/24 09:47:47;;;;;;;4.10;3.50;;;;;;;;;;5054936;28;20243;-86
2022/01/24 09:50:15;;;;;;;3.20;2.90;;;;;;;;;;5054621;28;20210;-86
2022/01/24 09:52:42;;;;;;;3.67;3.37;;;;;;;;;;5053056;28;20236;-85
2022/01/24 09:55:11;;;;;;;6.77;3.63;;;;;;;;;;5053741;28;20269;-85
2022/01/24 09:57:38;;;;;;;4.73;3.30;;;;;;;;;;5039610;28;20236;-85
2022/01/24 10:00:06;;;;;;;4.00;3.50;;;;;;;;;;5050712;28;20209;-86
2022/01/24 10:02:33;;;;;;;3.80;3.50;;;;;;;;;;5053083;28;20582;-86
2022/01/24 10:05:12;;;;;;;3.87;2.90;;;;;;;;;;5055950;28;20252;-85
2022/01/24 10:07:40;;;;;;;2.60;2.50;;;;;;;;;;5058655;28;20238;-86
2022/01/24 10:10:08;;;;;;;3.80;3.50;;;;;;;;;;5058634;28;20194;-86
2022/01/24 10:18:03;;;;;;;5.50;3.47;;;;;;;;;;5052689;28;20316;-86
2022/01/24 10:20:32;;;;;;;3.63;3.33;;;;;;;;;;5053385;28;20203;-85
2022/01/24 10:23:08;;;;;;;3.90;3.60;;;;;;;;;;5034833;28;20758;-85
2022/01/24 10:25:46;;;;;;;7.50;3.70;;;;;;;;;;5034196;28;20236;-85
2022/01/24 10:28:21;;;;;;;4.37;3.53;;;;;;;;;;5034629;28;20701;-84
2022/01/24 10:30:50;;;;;;;4.30;3.60;;;;;;;;;;5041460;28;20211;-85
2022/01/24 10:33:18;;;;;;;4.97;3.40;;;;;;;;;;5054780;28;20234;-85
2022/01/24 10:35:46;;;;;;;3.30;3.00;;;;;;;;;;5056979;28;20612;-84
2022/01/24 10:38:19;;;;;;;3.60;3.30;;;;;;;;;;5055380;28;20237;-85
2022/01/24 10:40:50;;;;;;;3.33;3.03;;;;;;;;;;5041571;28;20209;-85
2022/01/24 10:43:24;;;;;;;3.70;3.37;;;;;;;;;;5041189;28;20241;-85
2022/01/24 10:45:52;;;;;;;5.27;3.40;;;;;;;;;;5039125;28;20249;-85
2022/01/24 10:48:23;;;;;;;3.47;3.17;;;;;;;;;;5034385;28;20249;-85
2022/01/24 10:51:03;;;;;;;3.83;3.47;;;;;;;;;;5032543;28;20413;-85
2022/01/24 10:53:35;;;;;;;5.47;3.10;;;;;;;;;;5032005;28;20240;-85
2022/01/24 10:56:02;;;;;;;3.23;2.93;;;;;;;;;;5032951;28;20226;-85
2022/01/24 10:58:36;;;;;;;7.87;3.40;;;;;;;;;;5031875;28;20234;-86
2022/01/24 11:01:07;;;;;;;3.20;2.97;;;;;;;;;;5034422;28;20290;-86
2022/01/24 11:03:34;;;;;;;3.30;3.00;;;;;;;;;;5046992;28;20244;-86
2022/01/24 11:06:01;;;;;;;3.23;3.00;;;;;;;;;;5052007;28;20226;-87
2022/01/24 11:08:30;;;;;;;4.07;3.50;;;;;;;;;;5051418;28;20759;-86
2022/01/24 11:10:57;;;;;;;4.63;3.97;;;;;;;;;;5052092;28;20208;-85
2022/01/24 11:13:30;;;;;;;6.47;4.77;;;;;;;;;;5051543;28;20677;-85
2022/01/24 11:16:02;;;;;;;8.60;3.83;;;;;;;;;;5071628;28;20222;-86
2022/01/24 11:18:29;;;;;;;5.70;3.17;;;;;;;;;;5045424;28;20765;-86
2022/01/24 11:21:01;;;;;;;4.23;3.23;;;;;;;;;;5039262;28;20214;-86
2022/01/24 11:23:29;;;;;;;3.40;3.10;;;;;;;;;;5058556;28;20268;-86
2022/01/24 11:25:57;;;;;;;3.87;3.33;;;;;;;;;;5052408;28;20230;-86
2022/01/24 11:28:26;;;;;;;4.30;3.90;;;;;;;;;;5039464;28;20645;-86
2022/01/24 11:30:58;;;;;;;4.47;3.50;;;;;;;;;;5040731;28;20206;-87
2022/01/24 11:33:36;;;;;;;3.73;3.43;;;;;;;;;;5045300;28;20728;-87
2022/01/24 11:36:04;;;;;;;3.30;3.00;;;;;;;;;;5058622;28;20236;-86
2022/01/24 11:38:31;;;;;;;3.47;3.03;;;;;;;;;;5058449;28;20234;-86
2022/01/24 11:41:00;;;;;;;3.83;3.53;;;;;;;;;;5057865;28;20198;-85
2022/01/24 11:43:33;;;;;;;3.50;3.20;;;;;;;;;;5056203;28;20245;-85
2022/01/24 11:46:05;;;;;;;2.90;2.70;;;;;;;;;;5056281;28;20234;-85
2022/01/24 11:48:33;;;;;;;3.40;3.10;;;;;;;;;;5055221;28;20233;-85
2022/01/24 11:51:05;;;;;;;2.90;2.63;;;;;;;;;;5055484;28;20199;-85
2022/01/24 11:53:34;;;;;;;4.93;3.70;;;;;;;;;;5055402;28;20238;-85
2022/01/24 11:56:15;;;;;;;3.83;3.50;;;;;;;;;;5054775;28;20230;-84
2022/01/24 11:58:43;;;;;;;4.50;3.30;;;;;;;;;;5054280;28;20233;-83
2022/01/24 12:01:14;;;;;;;3.27;2.93;;;;;;;;;;5054784;28;20206;-84
2022/01/24 12:03:50;;;;;;;4.13;3.30;;;;;;;;;;5044761;28;20230;-83
2022/01/24 12:06:19;;;;;;;3.40;3.10;;;;;;;;;;5035352;28;20230;-84
2022/01/24 12:08:47;;;;;;;3.30;2.93;;;;;;;;;;5034350;28;20373;-84
2022/01/24 12:11:16;;;;;;;3.30;3.10;;;;;;;;;;5036012;28;20203;-84
2022/01/24 12:13:46;;;;;;;3.37;2.83;;;;;;;;;;5041779;28;20813;-84
2022/01/24 12:16:13;;;;;;;3.87;3.43;;;;;;;;;;5055793;28;20257;-83
2022/01/24 12:19:01;;;;;;;3.17;2.87;;;;;;;;;;5054254;28;20701;-83
2022/01/24 12:21:31;;;;;;;3.47;3.17;;;;;;;;;;5046007;28;20202;-84
2022/01/24 12:24:00;;;;;;;3.10;2.80;;;;;;;;;;5058082;28;20731;-84
2022/01/24 12:26:30;;;;;;;3.93;3.63;;;;;;;;;;5074863;28;20225;-84
2022/01/24 12:29:02;;;;;;;4.90;2.97;;;;;;;;;;5061544;28;20237;-84
2022/01/24 12:31:30;;;;;;;3.53;2.83;;;;;;;;;;5054748;28;20233;-84
2022/01/24 12:33:59;;;;;;;2.93;2.73;;;;;;;;;;5053998;28;20261;-83
2022/01/24 12:36:46;;;;;;;5.03;3.00;;;;;;;;;;5053886;28;20229;-84
2022/01/24 12:39:16;;;;;;;3.43;3.13;;;;;;;;;;5053978;28;20225;-83
2022/01/24 12:41:47;;;;;;;3.27;2.97;;;;;;;;;;5071868;28;20198;-83
2022/01/24 12:46:18;;;;;;;3.07;2.77;;;;;;;;;;5046424;28;20207;-84
2022/01/24 12:47:01;;;;;;;3.37;3.07;;;;;;;;;;5067120;22;20792;-81
2022/01/24 12:49:29;;;;;;;3.37;3.07;;;;;;;;;;5048582;28;20203;-83
2022/01/24 12:51:56;;;;;;;3.13;2.90;;;;;;;;;;5050957;28;20207;-82
2022/01/24 12:54:31;;;;;;;4.33;2.90;;;;;;;;;;5048388;28;20227;-83
2022/01/24 12:56:59;;;;;;;4.27;2.97;;;;;;;;;;5049182;28;20618;-80
2022/01/24 12:59:26;;;;;;;5.20;2.80;;;;;;;;;;5041498;28;20226;-81
2022/01/24 13:01:56;;;;;;;3.47;3.17;;;;;;;;;;5039702;28;20199;-83
2022/01/24 13:04:32;;;;;;;3.30;2.97;;;;;;;;;;5040143;28;20195;-83
2022/01/24 13:06:59;;;;;;;3.10;2.90;;;;;;;;;;5041123;28;20690;-83
2022/01/24 13:09:26;;;;;;;3.30;2.90;;;;;;;;;;5041418;28;20210;-83
2022/01/24 13:11:56;;;;;;;3.97;2.90;;;;;;;;;;5040766;28;20210;-81
2022/01/24 13:14:28;;;;;;;3.30;3.00;;;;;;;;;;5040271;28;20214;-80
2022/01/24 13:22:34;;;;;;;3.53;3.20;;;;;;;;;;5054089;28;20689;-81
2022/01/24 13:25:02;;;;;;;3.33;3.03;;;;;;;;;;5055216;28;20182;-81
2022/01/24 13:27:38;;;;;;;4.23;3.00;;;;;;;;;;5054200;28;20238;-82
2022/01/24 13:30:06;;;;;;;2.67;2.47;;;;;;;;;;5054269;28;20260;-81
2022/01/24 13:32:43;;;;;;;3.70;3.40;;;;;;;;;;5025347;28;20225;-82
2022/01/24 13:35:13;;;;;;;3.03;2.83;;;;;;;;;;5034558;28;20226;-81
2022/01/24 13:37:41;;;;;;;3.40;2.80;;;;;;;;;;5045017;28;20237;-81
2022/01/24 13:40:09;;;;;;;4.07;3.20;;;;;;;;;;5054626;28;20201;-81
2022/01/24 13:42:37;;;;;;;3.67;3.20;;;;;;;;;;5054418;28;20264;-81
2022/01/24 13:45:04;;;;;;;3.50;3.20;;;;;;;;;;5055557;28;20253;-81
2022/01/24 13:47:32;;;;;;;3.10;2.90;;;;;;;;;;5054188;28;20245;-81
2022/01/24 13:49:59;;;;;;;3.77;2.80;;;;;;;;;;5054554;28;20209;-81
2022/01/24 13:52:26;;;;;;;2.90;2.70;;;;;;;;;;5054732;28;20240;-81
2022/01/24 13:54:53;;;;;;;3.00;2.73;;;;;;;;;;5055774;28;20232;-81
2022/01/24 13:57:21;;;;;;;3.40;2.93;;;;;;;;;;5055578;28;20237;-81
2022/01/24 13:59:50;;;;;;;3.10;2.87;;;;;;;;;;5056910;28;20205;-81
2022/01/24 14:02:19;;;;;;;4.83;3.30;;;;;;;;;;5057066;28;20233;-81
2022/01/24 14:04:48;;;;;;;3.30;3.10;;;;;;;;;;5056378;28;20263;-81
2022/01/24 14:07:17;;;;;;;3.63;3.10;;;;;;;;;;5056072;28;20245;-81
2022/01/24 14:09:45;;;;;;;3.47;3.17;;;;;;;;;;5055086;28;20214;-81
2022/01/24 14:12:15;;;;;;;3.20;2.83;;;;;;;;;;5055818;28;20238;-81
2022/01/24 14:14:47;;;;;;;3.40;3.10;;;;;;;;;;5055789;28;20252;-81
2022/01/24 14:17:27;;;;;;;3.20;2.90;;;;;;;;;;5056392;28;20288;-81
2022/01/24 14:19:55;;;;;;;2.83;2.63;;;;;;;;;;5055801;28;20206;-81
2022/01/24 14:22:23;;;;;;;3.40;3.10;;;;;;;;;;5055379;28;20229;-81
2022/01/24 14:24:51;;;;;;;2.93;2.73;;;;;;;;;;5055454;28;20289;-81
2022/01/24 14:27:37;;;;;;;3.40;2.83;;;;;;;;;;5055850;28;20238;-81
2022/01/24 14:30:05;;;;;;;4.30;2.80;;;;;;;;;;5045851;28;20262;-81
2022/01/24 14:32:38;;;;;;;3.87;2.83;;;;;;;;;;5042258;28;20243;-82
2022/01/24 14:35:06;;;;;;;4.03;3.23;;;;;;;;;;5037778;28;20210;-81
2022/01/24 14:37:45;;;;;;;3.47;3.17;;;;;;;;;;5035926;28;20243;-81
2022/01/24 14:40:31;;;;;;;3.40;3.10;;;;;;;;;;5037620;28;20202;-81
2022/01/24 14:44:53;;;;;;;4.20;3.80;;;;;;;;;;5036859;28;20234;-81
2022/01/24 14:45:45;;;;;;;4.10;3.20;;;;;;;;;;5035257;28;20758;-82
2022/01/24 14:48:13;;;;;;;2.93;2.73;;;;;;;;;;5029426;28;20223;-83
2022/01/24 14:50:40;;;;;;;9.43;6.00;;;;;;;;;;5015182;28;20730;-84
2022/01/24 14:53:08;;;;;;;5.03;3.93;;;;;;;;;;5011893;28;20231;-84
2022/01/24 14:55:36;;;;;;;10.10;6.47;;;;;;;;;;5011892;28;20273;-84
2022/01/24 14:58:03;;;;;;;7.83;5.90;;;;;;;;;;5011540;28;20246;-84
2022/01/24 15:00:31;;;;;;;3.87;3.50;;;;;;;;;;5015266;28;20218;-83
2022/01/24 15:02:58;;;;;;;3.40;3.10;;;;;;;;;;5032245;28;20230;-85
2022/01/24 15:05:26;;;;;;;4.40;4.10;;;;;;;;;;5034956;28;20237;-84
2022/01/24 15:07:53;;;;;;;3.80;2.97;;;;;;;;;;5031708;28;20241;-84
2022/01/24 15:10:20;;;;;;;3.27;2.83;;;;;;;;;;5032364;28;20214;-83
2022/01/24 15:12:52;;;;;;;3.73;3.33;;;;;;;;;;5031883;28;20234;-84
2022/01/24 15:15:20;;;;;;;4.23;3.20;;;;;;;;;;5033245;28;20258;-84
2022/01/24 15:23:57;;;;;;;3.17;2.60;;;;;;;;;;5032943;28;20234;-84
2022/01/24 15:26:07;;;;;;;3.27;3.00;;;;;;;;;;5033326;28;20230;-84
2022/01/24 15:28:34;;;;;;;3.27;3.03;;;;;;;;;;5034019;28;20226;-84
2022/01/24 15:31:01;;;;;;;3.43;3.13;;;;;;;;;;5038122;28;20203;-84
2022/01/24 15:33:28;;;;;;;4.73;3.33;;;;;;;;;;5036240;28;20242;-84
2022/01/24 15:35:56;;;;;;;3.40;3.10;;;;;;;;;;5028304;28;20902;-82
2022/01/24 15:38:23;;;;;;;7.63;3.50;;;;;;;;;;5020385;28;20227;-82
2022/01/24 15:40:51;;;;;;;3.10;2.90;;;;;;;;;;5034417;28;20217;-82
2022/01/24 15:43:39;;;;;;;4.93;3.77;;;;;;;;;;5038289;28;20222;-82
2022/01/24 15:46:44;;;;;;;3.60;3.30;;;;;;;;;;5029725;28;20227;-84
2022/01/24 15:49:01;;;;;;;3.93;3.37;;;;;;;;;;5022695;28;20301;-83
2022/01/24 15:51:30;;;;;;;5.10;3.60;;;;;;;;;;5034436;28;20221;-83
2022/01/24 15:53:57;;;;;;;4.63;3.70;;;;;;;;;;5023138;28;20226;-84
2022/01/24 15:59:06;;;;;;;4.53;4.03;;;;;;;;;;5002487;28;20224;-83
2022/01/24 16:01:33;;;;;;;4.07;3.30;;;;;;;;;;5002527;28;20195;-83
2022/01/24 16:04:00;;;;;;;5.13;3.93;;;;;;;;;;5041111;28;20230;-83
2022/01/24 16:06:27;;;;;;;4.87;3.97;;;;;;;;;;5028024;28;20223;-84
2022/01/24 16:08:55;;;;;;;4.07;3.67;;;;;;;;;;5020219;28;20235;-84
2022/01/24 16:11:24;;;;;;;4.70;4.20;;;;;;;;;;5022511;28;20211;-82
2022/01/24 16:13:51;;;;;;;5.67;3.50;;;;;;;;;;5035722;28;20227;-82